Time;durP1;ratioP1;P1;durP2;ratioP2;P2;SDS_P1;SDS_P2;PMS_P1;PMS_P2;Temp;Humidity;BMP_temperature;BMP_pressure;BME280_temperature;BME280_humidity;BME280_pressure;Samples;Min_cycle;Max_cycle;Signal;HPM_P1;HPM_P2
2023/01/13 00:01:29;;;;;;;10.55;2.85;;;12.10;82.80;;;;;;5113486;28;20464;-70
2023/01/13 00:03:55;;;;;;;9.98;2.40;;;12.10;82.40;;;;;;5084763;28;20044;-70
2023/01/13 00:06:24;;;;;;;10.57;2.75;;;12.10;82.40;;;;;;5106950;28;20059;-69
2023/01/13 00:08:51;;;;;;;9.43;2.22;;;12.10;82.30;;;;;;5114993;28;20039;-70
2023/01/13 00:11:18;;;;;;;13.77;3.47;;;12.10;82.10;;;;;;5111192;28;20353;-69
2023/01/13 00:13:44;;;;;;;11.27;2.08;;;12.00;81.90;;;;;;5111233;28;20019;-70
2023/01/13 00:16:14;;;;;;;12.20;3.13;;;12.00;81.70;;;;;;5112793;27;20436;-69
2023/01/13 00:18:40;;;;;;;10.95;2.50;;;12.00;81.50;;;;;;5115078;28;20027;-69
2023/01/13 00:21:11;;;;;;;10.20;2.88;;;12.00;81.30;;;;;;5113505;28;20034;-70
2023/01/13 00:23:36;;;;;;;15.63;2.83;;;12.00;81.00;;;;;;5098239;28;20038;-70
2023/01/13 00:26:06;;;;;;;11.30;2.58;;;11.90;80.90;;;;;;5111772;28;20044;-69
2023/01/13 00:28:32;;;;;;;11.82;3.10;;;11.90;80.80;;;;;;5102144;28;20034;-69
2023/01/13 00:31:08;;;;;;;7.85;1.70;;;11.90;80.70;;;;;;5113741;28;20032;-70
2023/01/13 00:33:34;;;;;;;11.15;2.38;;;11.90;80.30;;;;;;5115277;28;20042;-70
2023/01/13 00:36:01;;;;;;;16.77;3.10;;;11.80;80.20;;;;;;5111273;28;20024;-70
2023/01/13 00:38:28;;;;;;;18.08;3.53;;;11.80;80.10;;;;;;5112437;28;20038;-70
2023/01/13 00:41:03;;;;;;;12.50;3.05;;;11.80;79.90;;;;;;5110809;28;20032;-69
2023/01/13 00:43:31;;;;;;;13.07;3.03;;;11.70;79.60;;;;;;5113618;28;20023;-69
2023/01/13 00:45:58;;;;;;;13.95;2.78;;;11.70;79.70;;;;;;5111337;28;20090;-69
2023/01/13 00:48:24;;;;;;;13.88;3.67;;;11.70;79.60;;;;;;5106763;28;20031;-70
2023/01/13 00:50:57;;;;;;;14.02;2.60;;;11.60;79.60;;;;;;5112832;28;20060;-70
2023/01/13 00:53:24;;;;;;;14.68;3.17;;;11.70;79.50;;;;;;5114012;28;20024;-69
2023/01/13 00:55:58;;;;;;;11.77;2.20;;;11.60;79.50;;;;;;5113159;28;20019;-69
2023/01/13 00:58:24;;;;;;;17.02;2.92;;;11.60;79.40;;;;;;5111211;28;20106;-69
2023/01/13 01:00:50;;;;;;;13.02;2.60;;;11.60;79.50;;;;;;5113728;28;20152;-67
2023/01/13 01:03:15;;;;;;;13.40;2.38;;;11.60;79.40;;;;;;5112606;28;20038;-70
2023/01/13 01:05:41;;;;;;;11.88;2.45;;;11.60;79.40;;;;;;5110201;28;20030;-69
2023/01/13 01:08:07;;;;;;;14.48;3.15;;;11.60;79.40;;;;;;5113638;28;20028;-70
2023/01/13 01:10:33;;;;;;;14.32;3.38;;;11.60;79.30;;;;;;5105039;28;20023;-69
2023/01/13 01:12:58;;;;;;;13.30;2.80;;;11.60;79.30;;;;;;5100207;28;20019;-69
2023/01/13 01:15:24;;;;;;;13.20;3.35;;;11.50;79.20;;;;;;5101440;28;20019;-69
2023/01/13 01:17:50;;;;;;;13.25;2.38;;;11.50;79.10;;;;;;5111418;28;20027;-69
2023/01/13 01:20:16;;;;;;;17.17;2.90;;;11.50;79.10;;;;;;5114724;28;20028;-69
2023/01/13 01:22:42;;;;;;;11.50;2.85;;;11.50;79.10;;;;;;5111949;28;20368;-69
2023/01/13 01:25:08;;;;;;;16.88;3.20;;;11.50;79.00;;;;;;5096543;28;20041;-69
2023/01/13 01:27:34;;;;;;;12.90;2.83;;;11.40;78.90;;;;;;5112430;28;20092;-69
2023/01/13 01:29:59;;;;;;;10.63;2.95;;;11.40;78.80;;;;;;5114549;28;20027;-69
2023/01/13 01:32:25;;;;;;;14.82;3.40;;;11.40;78.80;;;;;;5111155;28;20340;-69
2023/01/13 01:34:51;;;;;;;17.17;3.60;;;11.40;78.70;;;;;;5113337;28;20430;-69
2023/01/13 01:37:17;;;;;;;15.60;3.38;;;11.40;78.50;;;;;;5113362;28;20036;-69
2023/01/13 01:39:42;;;;;;;11.70;3.00;;;11.40;78.40;;;;;;5112255;28;20027;-69
2023/01/13 01:45:07;;;;;;;14.57;2.95;;;11.40;78.10;;;;;;5108014;28;20043;-69
2023/01/13 01:47:34;;;;;;;17.02;3.22;;;11.40;78.20;;;;;;5096177;28;20093;-69
2023/01/13 01:50:01;;;;;;;14.48;3.70;;;11.40;78.20;;;;;;5112877;28;20468;-69
2023/01/13 01:52:40;;;;;;;15.30;3.65;;;11.40;78.10;;;;;;5103247;28;20024;-69
2023/01/13 01:55:12;;;;;;;15.45;3.38;;;11.30;78.00;;;;;;5107618;28;20027;-69
2023/01/13 01:57:41;;;;;;;18.27;3.55;;;11.30;78.00;;;;;;5109016;28;20116;-70
2023/01/13 02:00:08;;;;;;;16.50;3.55;;;11.30;78.10;;;;;;5095414;28;20459;-70
2023/01/13 02:02:42;;;;;;;16.30;3.20;;;11.30;78.10;;;;;;5114557;28;20035;-69
2023/01/13 02:05:08;;;;;;;16.55;3.90;;;11.30;78.10;;;;;;5109059;28;20047;-70
2023/01/13 02:07:36;;;;;;;18.50;4.47;;;11.30;78.00;;;;;;5113730;28;20055;-70
2023/01/13 02:10:06;;;;;;;16.73;3.33;;;11.30;77.90;;;;;;5109721;28;20452;-69
2023/01/13 02:12:32;;;;;;;18.92;4.85;;;11.20;77.80;;;;;;5100438;28;20298;-70
2023/01/13 02:15:08;;;;;;;19.83;4.22;;;11.30;77.90;;;;;;5106260;28;20029;-69
2023/01/13 02:17:56;;;;;;;13.68;3.80;;;11.20;77.70;;;;;;5114293;28;20024;-69
2023/01/13 02:20:40;;;;;;;21.00;3.97;;;11.20;77.70;;;;;;5107142;28;20034;-70
2023/01/13 02:26:34;;;;;;;15.48;3.75;;;11.20;77.70;;;;;;5073539;28;20056;-69
2023/01/13 02:32:42;;;;;;;16.65;3.95;;;11.20;77.70;;;;;;5094016;28;20039;-70
2023/01/13 02:35:48;;;;;;;12.85;3.38;;;11.20;77.60;;;;;;5112591;28;20023;-69
2023/01/13 02:38:17;;;;;;;14.00;3.00;;;11.10;77.60;;;;;;5117321;28;20460;-69
2023/01/13 02:40:55;;;;;;;12.80;2.75;;;11.10;77.70;;;;;;5098932;28;20452;-69
2023/01/13 02:46:38;;;;;;;19.08;3.13;;;11.10;77.70;;;;;;5112715;28;20039;-69
2023/01/13 02:49:07;;;;;;;11.30;2.83;;;11.10;77.60;;;;;;5112013;28;20039;-70
2023/01/13 02:51:35;;;;;;;16.50;3.17;;;11.10;77.70;;;;;;5116579;28;20046;-69
2023/01/13 02:54:06;;;;;;;16.38;3.47;;;11.00;77.60;;;;;;5117518;28;20055;-69
2023/01/13 02:56:37;;;;;;;17.20;2.92;;;11.10;77.60;;;;;;5113159;28;20099;-69
2023/01/13 02:59:04;;;;;;;15.88;3.50;;;11.10;77.40;;;;;;5116925;28;20027;-70
2023/01/13 03:01:29;;;;;;;12.60;3.28;;;11.00;77.40;;;;;;5113561;28;20470;-69
2023/01/13 03:03:55;;;;;;;13.10;2.78;;;11.00;77.30;;;;;;5115919;28;20031;-69
2023/01/13 03:06:45;;;;;;;19.00;3.88;;;11.00;77.20;;;;;;5114552;28;20115;-69
2023/01/13 03:09:35;;;;;;;17.38;3.42;;;11.00;77.20;;;;;;5116587;28;20460;-69
2023/01/13 03:12:16;;;;;;;19.85;3.60;;;11.00;77.00;;;;;;5115845;28;20049;-69
2023/01/13 03:15:09;;;;;;;13.83;4.10;;;11.00;76.90;;;;;;5116614;28;20022;-69
2023/01/13 03:17:35;;;;;;;15.05;3.00;;;11.00;77.50;;;;;;5109619;28;20491;-69
2023/01/13 03:20:20;;;;;;;16.38;3.03;;;11.00;76.90;;;;;;5107521;28;20165;-69
2023/01/13 03:23:18;;;;;;;16.00;3.90;;;11.00;76.70;;;;;;5097483;28;20114;-69
2023/01/13 03:25:55;;;;;;;11.73;3.20;;;10.90;76.50;;;;;;5112561;28;20078;-69
2023/01/13 03:28:28;;;;;;;14.10;3.25;;;10.90;76.50;;;;;;5114544;28;20020;-69
2023/01/13 03:31:00;;;;;;;13.50;4.05;;;10.90;76.40;;;;;;5101874;28;20039;-70
2023/01/13 03:33:32;;;;;;;18.67;4.10;;;11.00;77.00;;;;;;5115658;28;20456;-69
2023/01/13 03:36:05;;;;;;;12.60;3.15;;;11.00;76.30;;;;;;5112460;28;20020;-69
2023/01/13 03:38:36;;;;;;;16.13;3.13;;;11.00;76.10;;;;;;5112274;28;20098;-69
2023/01/13 03:41:10;;;;;;;16.85;3.55;;;11.00;76.00;;;;;;5114321;28;20034;-69
2023/01/13 03:46:31;;;;;;;13.15;2.47;;;11.00;75.80;;;;;;5107498;28;20122;-69
2023/01/13 03:49:01;;;;;;;14.75;3.17;;;11.00;75.80;;;;;;5114963;28;20080;-69
2023/01/13 03:51:31;;;;;;;12.15;2.67;;;11.00;75.80;;;;;;5114515;28;20035;-69
2023/01/13 03:54:04;;;;;;;18.63;3.28;;;11.00;75.70;;;;;;5116273;28;20454;-70
2023/01/13 03:56:38;;;;;;;14.05;3.05;;;11.00;75.70;;;;;;5113400;28;20034;-69
2023/01/13 03:59:10;;;;;;;13.20;2.90;;;11.00;75.70;;;;;;5113888;28;20028;-69
2023/01/13 04:01:41;;;;;;;;;;;11.00;75.80;;;;;;5112341;28;20210;-69
2023/01/13 04:04:12;;;;;;;13.45;3.10;;;10.90;75.80;;;;;;5114983;28;19907;-70
2023/01/13 04:07:14;;;;;;;14.63;3.13;;;11.00;75.90;;;;;;5114364;28;20024;-69
2023/01/13 04:09:54;;;;;;;12.00;2.78;;;11.00;75.80;;;;;;5110953;28;20062;-69
2023/01/13 04:12:59;;;;;;;22.13;3.45;;;11.00;75.80;;;;;;5095034;28;20429;-69
2023/01/13 04:15:16;;;;;;;15.52;3.08;;;11.00;75.80;;;;;;5109464;28;20123;-69
2023/01/13 04:17:41;;;;;;;14.82;3.92;;;10.90;75.80;;;;;;5111306;27;20029;-69
2023/01/13 04:20:08;;;;;;;15.45;2.50;;;10.90;75.90;;;;;;5107140;28;20107;-70
2023/01/13 04:22:34;;;;;;;15.60;3.78;;;10.90;75.90;;;;;;5112512;28;20024;-69
2023/01/13 04:25:00;;;;;;;17.55;3.72;;;10.90;75.80;;;;;;5114661;28;20045;-69
2023/01/13 04:27:25;;;;;;;18.50;3.15;;;11.00;75.80;;;;;;5103629;28;20043;-69
2023/01/13 04:29:51;;;;;;;14.45;2.80;;;10.90;75.80;;;;;;5112404;28;20114;-69
2023/01/13 04:32:17;;;;;;;11.73;3.00;;;10.90;75.80;;;;;;5114295;28;20036;-69
2023/01/13 04:34:43;;;;;;;19.83;3.40;;;10.90;75.70;;;;;;5111927;28;20024;-69
2023/01/13 04:37:08;;;;;;;14.48;2.80;;;10.90;75.70;;;;;;5114301;28;20028;-69
2023/01/13 04:39:34;;;;;;;13.48;2.47;;;10.90;75.60;;;;;;5106889;28;20042;-69
2023/01/13 04:42:01;;;;;;;18.08;2.88;;;10.90;75.50;;;;;;5109848;28;20046;-69
2023/01/13 04:44:30;;;;;;;7.57;2.35;;;10.80;75.40;;;;;;5085509;28;20055;-69
2023/01/13 04:46:57;;;;;;;11.45;2.20;;;10.80;75.30;;;;;;5094076;27;20049;-69
2023/01/13 04:49:23;;;;;;;12.65;2.38;;;10.80;75.20;;;;;;5103692;27;20051;-69
2023/01/13 04:51:49;;;;;;;9.30;2.10;;;10.80;74.90;;;;;;5123305;27;20479;-70
2023/01/13 04:54:15;;;;;;;8.18;2.08;;;10.80;74.80;;;;;;5109954;27;20444;-69
2023/01/13 04:56:41;;;;;;;12.30;2.45;;;10.70;74.60;;;;;;5114123;27;20080;-69
2023/01/13 04:59:12;;;;;;;9.25;1.75;;;10.80;74.50;;;;;;5099044;28;20103;-69
2023/01/13 05:01:40;;;;;;;7.97;1.80;;;10.80;74.20;;;;;;5118199;27;20114;-69
2023/01/13 05:04:06;;;;;;;7.20;2.38;;;10.70;74.10;;;;;;5111122;28;20023;-69
2023/01/13 05:06:32;;;;;;;7.65;1.50;;;10.70;73.90;;;;;;5112180;28;20468;-69
2023/01/13 05:08:58;;;;;;;9.82;1.60;;;10.70;73.70;;;;;;5108166;28;20059;-69
2023/01/13 05:17:01;;;;;;;9.10;2.00;;;10.70;74.00;;;;;;5103913;28;20024;-69
2023/01/13 05:19:34;;;;;;;7.45;1.90;;;10.70;73.00;;;;;;5103796;28;20062;-69
2023/01/13 05:27:31;;;;;;;10.70;2.22;;;10.70;73.10;;;;;;5103106;28;20044;-70
2023/01/13 05:29:57;;;;;;;7.70;1.38;;;10.70;73.00;;;;;;5100805;28;20028;-69
2023/01/13 05:32:23;;;;;;;7.95;2.00;;;10.70;73.00;;;;;;5108327;28;20438;-69
2023/01/13 05:34:49;;;;;;;8.93;1.88;;;10.60;73.00;;;;;;5096832;28;20016;-69
2023/01/13 05:37:15;;;;;;;6.50;1.10;;;10.60;73.00;;;;;;5100619;28;20058;-69
2023/01/13 05:45:11;;;;;;;7.13;1.70;;;10.70;73.30;;;;;;5125659;28;20469;-69
2023/01/13 05:47:37;;;;;;;5.95;1.45;;;10.70;73.30;;;;;;5118157;28;20115;-68
2023/01/13 05:50:03;;;;;;;8.57;2.42;;;10.70;73.40;;;;;;5123807;28;20109;-69
2023/01/13 05:52:28;;;;;;;8.90;2.05;;;10.70;73.40;;;;;;5095679;28;20355;-68
2023/01/13 05:54:54;;;;;;;10.55;2.75;;;10.70;73.50;;;;;;5113059;28;20016;-68
2023/01/13 05:57:21;;;;;;;12.38;1.70;;;10.60;73.60;;;;;;5112590;28;20403;-69
2023/01/13 05:59:46;;;;;;;8.73;1.55;;;10.60;73.80;;;;;;5119751;28;20509;-69
2023/01/13 06:02:12;;;;;;;7.57;1.50;;;10.60;73.80;;;;;;5100090;28;20028;-69
2023/01/13 06:04:38;;;;;;;11.95;2.42;;;10.70;74.00;;;;;;5114394;27;20515;-69
2023/01/13 06:07:04;;;;;;;6.88;1.60;;;10.60;73.90;;;;;;5119605;27;20092;-68
2023/01/13 06:09:30;;;;;;;5.47;1.30;;;10.70;74.00;;;;;;5119948;27;20063;-70
2023/01/13 06:11:55;;;;;;;9.48;2.15;;;10.60;74.00;;;;;;5116879;27;20031;-68
2023/01/13 06:14:22;;;;;;;9.05;2.08;;;10.60;74.00;;;;;;5119120;27;20015;-68
2023/01/13 06:16:47;;;;;;;11.27;2.28;;;10.60;73.90;;;;;;5131884;27;20052;-68
2023/01/13 06:19:13;;;;;;;15.98;2.10;;;10.60;74.00;;;;;;5134018;27;20094;-68
2023/01/13 06:21:39;;;;;;;10.48;1.92;;;10.60;74.00;;;;;;5104838;28;20019;-68
2023/01/13 06:24:06;;;;;;;8.88;1.98;;;10.60;74.00;;;;;;5100997;28;20046;-68
2023/01/13 06:26:38;;;;;;;6.97;1.90;;;10.50;74.00;;;;;;5117651;28;20118;-68
2023/01/13 06:29:04;;;;;;;;;;;10.50;74.10;;;;;;5117365;28;20446;-68
2023/01/13 06:31:32;;;;;;;9.18;2.10;;;10.50;74.20;;;;;;5117169;27;19919;-68
2023/01/13 06:34:16;;;;;;;12.32;2.40;;;10.50;74.20;;;;;;5116214;28;20420;-68
2023/01/13 06:36:50;;;;;;;12.55;2.42;;;10.50;74.20;;;;;;5117205;28;20024;-68
2023/01/13 06:39:20;;;;;;;11.77;2.28;;;10.50;74.30;;;;;;5109341;28;20021;-68
2023/01/13 06:44:33;;;;;;;11.05;2.50;;;10.50;74.40;;;;;;5100345;28;20388;-68
2023/01/13 06:46:59;;;;;;;10.02;2.65;;;10.40;74.30;;;;;;5101928;28;20036;-68
2023/01/13 06:49:24;;;;;;;9.35;2.15;;;10.40;74.30;;;;;;5109595;28;20035;-68
2023/01/13 06:51:50;;;;;;;15.23;3.15;;;10.40;74.40;;;;;;5116688;28;20051;-68
2023/01/13 06:54:16;;;;;;;12.23;2.45;;;10.40;74.40;;;;;;5111485;28;20024;-68
2023/01/13 06:56:42;;;;;;;11.25;2.25;;;10.40;74.40;;;;;;5105161;28;20020;-70
2023/01/13 06:59:07;;;;;;;14.98;3.47;;;10.40;74.40;;;;;;5110631;28;20649;-70
2023/01/13 07:01:33;;;;;;;12.63;2.70;;;10.40;74.40;;;;;;5112126;28;20028;-70
2023/01/13 07:03:59;;;;;;;12.20;2.28;;;10.40;74.50;;;;;;5106410;27;20705;-71
2023/01/13 07:06:25;;;;;;;11.88;2.10;;;10.50;74.50;;;;;;5114350;28;20048;-72
2023/01/13 07:08:50;;;;;;;13.02;2.40;;;10.50;74.60;;;;;;5113434;28;20031;-71
2023/01/13 07:11:16;;;;;;;15.77;2.95;;;10.50;74.50;;;;;;5088241;28;20035;-71
2023/01/13 07:16:27;;;;;;;11.68;2.80;;;10.50;74.30;;;;;;5114377;28;20106;-71
2023/01/13 07:18:55;;;;;;;10.77;2.80;;;10.50;74.30;;;;;;5098342;28;20479;-72
2023/01/13 07:21:20;;;;;;;16.80;2.60;;;10.50;74.20;;;;;;5102389;28;20027;-71
2023/01/13 07:23:47;;;;;;;12.00;2.55;;;10.50;74.30;;;;;;5115678;28;20031;-71
2023/01/13 07:26:14;;;;;;;12.00;2.97;;;10.50;74.20;;;;;;5104466;28;20054;-72
2023/01/13 07:28:40;;;;;;;16.00;2.25;;;10.50;74.20;;;;;;5116875;28;20485;-71
2023/01/13 07:31:16;;;;;;;14.18;2.90;;;10.50;74.10;;;;;;5098551;28;20035;-71
2023/01/13 07:33:42;;;;;;;12.20;2.33;;;10.50;74.00;;;;;;5109780;28;21694;-71
2023/01/13 07:36:08;;;;;;;12.68;3.15;;;10.50;74.00;;;;;;5113759;28;20051;-71
2023/01/13 07:38:35;;;;;;;10.82;2.00;;;10.50;73.90;;;;;;5114809;27;20063;-71
2023/01/13 07:43:46;;;;;;;13.27;2.17;;;10.50;73.80;;;;;;5109397;28;20039;-72
2023/01/13 07:46:12;;;;;;;14.57;3.20;;;10.50;73.70;;;;;;5105615;28;20036;-72
2023/01/13 07:48:37;;;;;;;11.75;2.38;;;10.50;73.60;;;;;;5116119;27;20062;-72
2023/01/13 07:51:06;;;;;;;13.43;2.45;;;10.50;73.60;;;;;;5113885;28;20022;-72
2023/01/13 07:53:32;;;;;;;15.70;2.78;;;10.40;73.50;;;;;;5115858;28;20047;-71
2023/01/13 07:55:59;;;;;;;19.42;3.33;;;10.40;73.50;;;;;;5110438;28;20051;-71
2023/01/13 07:58:26;;;;;;;14.30;2.25;;;10.40;73.50;;;;;;5102112;27;20092;-71
2023/01/13 08:00:52;;;;;;;10.73;2.42;;;10.40;73.50;;;;;;5103166;28;20020;-71
2023/01/13 08:03:18;;;;;;;12.30;2.53;;;10.40;73.40;;;;;;5107252;28;20055;-72
2023/01/13 08:05:44;;;;;;;11.63;2.88;;;10.40;73.40;;;;;;5095917;28;20054;-70
2023/01/13 08:08:10;;;;;;;10.07;2.80;;;10.50;73.30;;;;;;5113042;28;20028;-70
2023/01/13 08:10:38;;;;;;;14.55;3.15;;;10.50;73.20;;;;;;5111828;28;20024;-70
2023/01/13 08:13:18;;;;;;;15.23;2.58;;;10.50;73.20;;;;;;5113752;28;20070;-70
2023/01/13 08:15:47;;;;;;;13.70;2.75;;;10.50;73.00;;;;;;5111042;28;20044;-70
2023/01/13 08:18:13;;;;;;;13.05;2.50;;;10.50;73.00;;;;;;5111406;28;20035;-70
2023/01/13 08:20:39;;;;;;;9.80;2.70;;;10.50;73.00;;;;;;5110241;28;20015;-70
2023/01/13 08:23:05;;;;;;;12.73;3.13;;;10.50;73.00;;;;;;5112997;28;20031;-68
2023/01/13 08:25:31;;;;;;;14.70;2.55;;;10.60;73.00;;;;;;5111290;28;20031;-69
2023/01/13 08:27:59;;;;;;;10.77;2.47;;;10.60;72.90;;;;;;5113213;28;20444;-69
2023/01/13 08:30:26;;;;;;;10.98;2.60;;;10.60;72.90;;;;;;5115644;28;20031;-69
2023/01/13 08:32:52;;;;;;;11.27;2.30;;;10.60;72.80;;;;;;5115016;28;20066;-69
2023/01/13 08:35:18;;;;;;;10.80;2.35;;;10.60;72.70;;;;;;5114821;28;20348;-69
2023/01/13 08:37:46;;;;;;;11.90;2.63;;;10.60;72.70;;;;;;5113006;28;20023;-69
2023/01/13 08:40:14;;;;;;;14.48;3.33;;;10.60;72.70;;;;;;5095523;28;20333;-69
2023/01/13 08:42:40;;;;;;;8.18;2.33;;;10.60;72.60;;;;;;5108805;28;20023;-69
2023/01/13 08:45:07;;;;;;;12.85;3.08;;;10.60;72.70;;;;;;5115885;28;20123;-70
2023/01/13 08:47:32;;;;;;;10.50;2.38;;;10.60;72.60;;;;;;5112773;28;20118;-70
2023/01/13 08:49:58;;;;;;;11.10;3.33;;;10.60;72.60;;;;;;5109705;28;20118;-69
2023/01/13 08:52:24;;;;;;;15.77;3.13;;;10.60;72.60;;;;;;5114024;28;20106;-69
2023/01/13 08:54:50;;;;;;;11.00;2.13;;;10.60;72.50;;;;;;5115378;28;20026;-70
2023/01/13 08:57:18;;;;;;;12.55;2.63;;;10.60;72.50;;;;;;5096594;28;20118;-70
2023/01/13 08:59:45;;;;;;;18.60;3.58;;;10.60;72.50;;;;;;5113883;27;20498;-70
2023/01/13 09:02:21;;;;;;;12.23;2.90;;;10.60;72.30;;;;;;5115027;28;20336;-70
2023/01/13 09:04:47;;;;;;;15.55;3.25;;;10.60;72.30;;;;;;5112682;28;20020;-69
2023/01/13 09:07:14;;;;;;;15.43;3.15;;;10.60;72.30;;;;;;5115723;27;20034;-70
2023/01/13 09:09:40;;;;;;;14.60;3.35;;;10.60;72.30;;;;;;5113013;28;20023;-69
2023/01/13 09:14:51;;;;;;;19.05;3.92;;;10.60;72.30;;;;;;5115669;28;20106;-69
2023/01/13 09:17:17;;;;;;;13.60;3.20;;;10.60;72.50;;;;;;5114625;28;20019;-69
2023/01/13 09:19:43;;;;;;;16.85;3.67;;;10.60;72.70;;;;;;5113314;28;20428;-69
2023/01/13 09:22:14;;;;;;;11.15;2.30;;;10.60;72.90;;;;;;5115328;28;20317;-69
2023/01/13 09:24:39;;;;;;;18.90;3.17;;;10.60;73.00;;;;;;5112805;28;20015;-69
2023/01/13 09:27:07;;;;;;;17.15;3.70;;;10.60;73.00;;;;;;5114667;28;20444;-69
2023/01/13 09:29:33;;;;;;;13.73;2.55;;;10.60;73.10;;;;;;5111407;28;20459;-69
2023/01/13 09:31:58;;;;;;;15.52;3.22;;;10.60;73.10;;;;;;5112638;28;20081;-69
2023/01/13 09:37:08;;;;;;;14.32;2.15;;;10.60;73.00;;;;;;5116369;28;20058;-68
2023/01/13 09:39:35;;;;;;;13.80;3.08;;;10.60;73.00;;;;;;5117703;28;20420;-69
2023/01/13 09:45:33;;;;;;;14.73;3.75;;;10.60;73.00;;;;;;5095712;28;20123;-71
2023/01/13 09:48:50;;;;;;;13.23;3.13;;;10.60;73.10;;;;;;5117813;28;20035;-69
2023/01/13 09:51:44;;;;;;;15.38;3.47;;;10.60;73.20;;;;;;5108897;28;20100;-70
2023/01/13 09:54:30;;;;;;;14.20;2.75;;;10.60;73.30;;;;;;5108220;28;20432;-70
2023/01/13 09:56:58;;;;;;;13.90;2.90;;;10.50;73.50;;;;;;5118789;28;20439;-75
2023/01/13 09:59:28;;;;;;;10.60;2.70;;;10.50;73.70;;;;;;5117741;28;20023;-76
2023/01/13 10:02:03;;;;;;;15.90;3.00;;;10.50;73.90;;;;;;5100247;28;20089;-71
2023/01/13 10:04:29;;;;;;;14.20;2.88;;;10.50;74.10;;;;;;5116117;28;20027;-70
2023/01/13 10:07:00;;;;;;;19.20;3.78;;;10.40;74.40;;;;;;5116967;28;20375;-68
2023/01/13 10:09:51;;;;;;;14.82;2.78;;;10.40;74.60;;;;;;5118479;28;20413;-68
2023/01/13 10:15:14;;;;;;;13.57;2.80;;;10.40;75.10;;;;;;5118440;28;20038;-71
2023/01/13 10:17:55;;;;;;;10.88;2.40;;;10.40;75.30;;;;;;5116480;28;20030;-68
2023/01/13 10:20:51;;;;;;;12.73;2.70;;;10.40;75.50;;;;;;5105535;28;20364;-68
2023/01/13 10:23:37;;;;;;;13.00;3.00;;;10.40;75.40;;;;;;5105937;28;20039;-70
2023/01/13 10:26:23;;;;;;;13.70;3.15;;;10.40;75.60;;;;;;5116934;28;20048;-70
2023/01/13 10:28:54;;;;;;;13.32;3.13;;;10.40;75.70;;;;;;5108693;28;20110;-70
2023/01/13 10:31:21;;;;;;;10.90;2.83;;;10.40;75.80;;;;;;5115818;28;20028;-70
2023/01/13 10:33:47;;;;;;;13.77;3.10;;;10.50;75.90;;;;;;5116780;28;20035;-70
2023/01/13 10:36:15;;;;;;;9.98;2.30;;;10.40;76.00;;;;;;5116486;28;20432;-70
2023/01/13 10:38:44;;;;;;;12.98;2.78;;;10.50;76.10;;;;;;5102670;28;20039;-70
2023/01/13 10:41:17;;;;;;;14.05;3.13;;;10.40;76.10;;;;;;5112105;28;20168;-70
2023/01/13 10:44:04;;;;;;;15.80;2.85;;;10.50;76.30;;;;;;5116584;28;20023;-71
2023/01/13 10:46:48;;;;;;;12.93;2.90;;;10.50;76.20;;;;;;5117774;28;20107;-71
2023/01/13 10:49:27;;;;;;;13.63;3.53;;;10.50;76.10;;;;;;5114044;28;20024;-70
2023/01/13 10:51:52;;;;;;;15.48;3.65;;;10.60;76.10;;;;;;5117418;28;20043;-70
2023/01/13 10:54:21;;;;;;;11.55;2.55;;;10.60;76.10;;;;;;5116351;28;20023;-70
2023/01/13 10:56:48;;;;;;;15.52;3.38;;;10.70;76.20;;;;;;5117519;28;20368;-70
2023/01/13 10:59:23;;;;;;;15.13;3.40;;;10.80;76.00;;;;;;5115848;28;20452;-70
2023/01/13 11:02:02;;;;;;;12.98;2.70;;;10.80;75.80;;;;;;5117409;28;20028;-70
2023/01/13 11:04:27;;;;;;;15.43;3.80;;;10.80;75.80;;;;;;5115508;28;20050;-70
2023/01/13 11:06:53;;;;;;;17.92;3.42;;;10.80;75.80;;;;;;5117568;28;20334;-70
2023/01/13 11:09:21;;;;;;;15.80;3.88;;;10.80;75.90;;;;;;5092850;28;20032;-70
2023/01/13 11:11:54;;;;;;;8.30;2.40;;;10.80;76.00;;;;;;5109535;28;20024;-69
2023/01/13 11:14:35;;;;;;;14.02;3.10;;;10.90;76.00;;;;;;5115977;28;20349;-69
2023/01/13 11:17:26;;;;;;;12.82;2.83;;;10.90;76.00;;;;;;5103574;28;20133;-70
2023/01/13 11:20:10;;;;;;;15.50;3.05;;;10.80;76.10;;;;;;5080095;28;20326;-70
2023/01/13 11:22:58;;;;;;;11.48;3.03;;;10.80;76.40;;;;;;5112725;28;20043;-70
2023/01/13 11:25:43;;;;;;;12.27;3.40;;;10.80;76.50;;;;;;5109685;28;20086;-70
2023/01/13 11:28:46;;;;;;;16.88;3.28;;;10.70;76.70;;;;;;5115575;28;20063;-70
2023/01/13 11:31:32;;;;;;;11.18;2.95;;;10.70;76.90;;;;;;5115093;28;20020;-70
2023/01/13 11:34:23;;;;;;;15.20;3.10;;;10.70;77.00;;;;;;5112707;28;20047;-70
2023/01/13 11:36:52;;;;;;;16.23;3.83;;;10.70;77.10;;;;;;5084416;28;20123;-70
2023/01/13 11:39:28;;;;;;;18.35;4.32;;;10.80;77.20;;;;;;5106602;28;20206;-69
2023/01/13 11:42:26;;;;;;;11.45;3.22;;;10.80;77.20;;;;;;5110324;28;20341;-70
2023/01/13 11:45:17;;;;;;;12.80;3.05;;;10.80;77.00;;;;;;5115588;28;20108;-68
2023/01/13 11:47:47;;;;;;;11.60;3.60;;;10.90;77.00;;;;;;5108647;28;20357;-67
2023/01/13 11:50:40;;;;;;;14.18;2.50;;;10.90;77.00;;;;;;5105617;28;20024;-67
2023/01/13 11:53:22;;;;;;;8.43;2.05;;;10.90;76.90;;;;;;5107859;28;20046;-66
2023/01/13 11:56:12;;;;;;;11.27;2.75;;;10.90;76.90;;;;;;5114992;28;20478;-66
2023/01/13 11:58:56;;;;;;;11.23;3.00;;;11.00;77.00;;;;;;5103183;28;20032;-68
2023/01/13 12:01:31;;;;;;;11.02;2.47;;;11.00;77.00;;;;;;5113462;28;20016;-67
2023/01/13 12:04:04;;;;;;;12.18;2.83;;;10.90;77.00;;;;;;5113009;28;20467;-66
2023/01/13 12:06:40;;;;;;;13.35;2.75;;;10.90;77.00;;;;;;5111444;28;20425;-66
2023/01/13 12:09:11;;;;;;;14.35;3.78;;;10.90;77.00;;;;;;5110146;28;20058;-67
2023/01/13 12:14:44;;;;;;;11.10;3.13;;;10.90;77.00;;;;;;5110107;28;19990;-67
2023/01/13 12:17:37;;;;;;;12.48;2.38;;;10.90;76.90;;;;;;5108479;28;20024;-68
2023/01/13 12:20:32;;;;;;;14.13;2.60;;;10.80;77.00;;;;;;5085221;28;20040;-67
2023/01/13 12:23:02;;;;;;;12.38;3.13;;;10.80;77.10;;;;;;5069561;28;20060;-68
2023/01/13 12:25:35;;;;;;;17.05;3.60;;;10.80;77.40;;;;;;5109509;28;20027;-69
2023/01/13 12:28:15;;;;;;;10.38;3.08;;;10.80;77.30;;;;;;5105514;27;20444;-67
2023/01/13 12:30:55;;;;;;;12.45;3.03;;;10.90;77.40;;;;;;5103778;27;20442;-67
2023/01/13 12:33:45;;;;;;;16.00;3.28;;;10.90;77.40;;;;;;5111777;28;20111;-69
2023/01/13 12:36:27;;;;;;;12.35;2.83;;;10.90;77.50;;;;;;5111747;28;20030;-68
2023/01/13 12:38:58;;;;;;;11.82;3.25;;;10.80;77.60;;;;;;5112536;28;20059;-67
2023/01/13 12:41:28;;;;;;;14.40;2.93;;;10.90;77.80;;;;;;5111887;28;20057;-65
2023/01/13 12:46:51;;;;;;;14.85;3.22;;;10.90;77.80;;;;;;5104991;28;20052;-68
2023/01/13 12:49:31;;;;;;;13.38;2.70;;;10.90;77.90;;;;;;5111787;28;20046;-68
2023/01/13 12:52:18;;;;;;;12.30;2.83;;;10.90;78.00;;;;;;5108831;28;20036;-68
2023/01/13 12:54:44;;;;;;;13.10;2.33;;;10.80;77.90;;;;;;5109727;28;20031;-68
2023/01/13 12:57:25;;;;;;;11.68;2.25;;;10.70;78.20;;;;;;5111885;28;20035;-68
2023/01/13 13:00:03;;;;;;;14.45;3.42;;;10.70;78.30;;;;;;5110212;28;20031;-69
2023/01/13 13:02:36;;;;;;;13.18;2.97;;;10.70;78.40;;;;;;5104623;28;20039;-68
2023/01/13 13:05:51;;;;;;;13.23;2.97;;;10.70;78.50;;;;;;5112038;28;20030;-69
2023/01/13 13:08:49;;;;;;;11.32;2.10;;;10.70;78.50;;;;;;5097013;28;20436;-68
2023/01/13 13:14:13;;;;;;;10.15;2.53;;;10.80;78.40;;;;;;5112632;28;20105;-68
2023/01/13 13:16:48;;;;;;;13.10;2.65;;;10.80;78.40;;;;;;5106276;28;20023;-69
2023/01/13 13:19:16;;;;;;;13.05;2.67;;;10.90;78.40;;;;;;5112858;28;20066;-70
2023/01/13 13:22:10;;;;;;;12.50;3.05;;;10.80;78.40;;;;;;5095578;28;20325;-67
2023/01/13 13:24:37;;;;;;;11.45;2.28;;;10.90;78.30;;;;;;5104355;28;20040;-69
2023/01/13 13:27:22;;;;;;;10.57;2.80;;;10.90;78.30;;;;;;5110510;28;20051;-69
2023/01/13 13:29:58;;;;;;;10.43;3.22;;;10.90;78.10;;;;;;5083441;28;20036;-69
2023/01/13 13:32:30;;;;;;;13.30;2.80;;;10.90;78.00;;;;;;5094182;28;20024;-70
2023/01/13 13:35:14;;;;;;;;;;;10.90;78.00;;;;;;5108811;28;20581;-70
2023/01/13 13:47:00;;;;;;;13.70;2.72;;;11.00;77.50;;;;;;5088970;28;20126;-69
2023/01/13 13:49:39;;;;;;;10.80;3.05;;;11.00;77.40;;;;;;5113402;28;20031;-69
2023/01/13 13:52:14;;;;;;;11.73;2.00;;;11.00;77.20;;;;;;5082748;28;20032;-69
2023/01/13 13:54:43;;;;;;;10.77;2.75;;;11.00;77.10;;;;;;5112608;28;20041;-69
2023/01/13 13:57:22;;;;;;;17.58;3.15;;;11.00;77.00;;;;;;5100680;28;20028;-69
2023/01/13 13:59:53;;;;;;;9.20;2.50;;;11.00;76.70;;;;;;5099762;28;20023;-69
2023/01/13 14:02:27;;;;;;;15.25;3.22;;;11.00;76.70;;;;;;5090696;28;20067;-69
2023/01/13 14:05:06;;;;;;;10.65;2.33;;;11.00;76.70;;;;;;5110058;28;20099;-70
2023/01/13 14:07:45;;;;;;;13.48;2.40;;;11.10;76.50;;;;;;5108533;28;20028;-69
2023/01/13 14:10:26;;;;;;;10.98;2.53;;;11.10;76.40;;;;;;5113983;28;20027;-69
2023/01/13 14:12:51;;;;;;;12.63;3.10;;;11.10;76.30;;;;;;5112719;28;20110;-69